Seattle, WA (98115)

5:13 PM PST on February 13, 2016 (GMT -0800)
Wedgwood | | Change Station
CLOSE
Current Station
Personal Weather Station
Location: Seattle, WA
Elevation: 367 ft
Nearby Weather Stations

Elev 367 ft 47.68 °N, 122.29 °W | Updated 1 second ago

Light Rain
Light Rain
45.2 °F
Feels Like 45 °F
N
0.0
Wind Variable Wind from SSW

Today
High -- | Low -- °F
--% Chance of Precip.
Yesterday
High -- | Low -- °F
Precip. -- in
Pressure 30.12 in
Visibility 7.0 miles
Clouds Scattered Clouds 1000 ft
Mostly Cloudy 1500 ft
Overcast 2700 ft
Windchill 45 °F
Dew Point 45 °F
Humidity 99%
Rainfall 0.11 in
Snow Depth Not available.
7:18 AM 5:28 PM
Waxing Crescent, 36% visible
METAR KBFI 140053Z 15011KT 7SM -RA SCT010 BKN015 OVC027 08/08 A3012 RMK AO2 SLP200 P0004 T00830078
Pressure 30.12 in
Visibility 7.0 miles
Clouds Scattered Clouds 1000 ft
Mostly Cloudy 1500 ft
Overcast 2700 ft
Windchill 45 °F
Dew Point 45 °F
Humidity 99%
Rainfall 0.11 in
Snow Depth Not available.
7:18 AM 5:28 PM
Waxing Crescent, 36% visible
METAR KBFI 140053Z 15011KT 7SM -RA SCT010 BKN015 OVC027 08/08 A3012 RMK AO2 SLP200 P0004 T00830078

10-Day Weather Forecast

Almanac

Astronomy

Feb. 13, 2016 Rise Set
Actual Time
Civil Twilight
Nautical Twilight
Astronomical Twilight
Moon
Length of Visible Light
Length of Day
Tomorrow will be .
, % of the Moon is Illuminated

Today's Extremes

State Highs State Lows

Community

WunderPhotos

Upload Photos

1,892,723 photos uploaded!

WunderBlog® & News

Nearby

Air Quality

  Air Quality AQ Index Pollutant
Not available.

Snow Depth

Station Depth Elevation

Earthquake Activity

City Distance Mag. Time & Date
Minimum magnitude displayed is 2.5.

Coastal Water Temperatures

Place Temperature

Stations

Nearby Weather Stations

Station Location Temp. Windchill Dew Point Humidity Wind Precip. Elev Updated Type
                   

Watches & Warnings

There are currently no watches in effect.